Time;durP1;ratioP1;P1;durP2;ratioP2;P2;SDS_P1;SDS_P2;PMS_P1;PMS_P2;Temp;Humidity;BMP_temperature;BMP_pressure;BME280_temperature;BME280_humidity;BME280_pressure;Samples;Min_cycle;Max_cycle;Signal;HPM_P1;HPM_P2
2023/02/21 02:15:43;;;;;;;1.45;1.35;;;;;;;;;;5016776;28;20109;-91
2023/02/21 02:18:29;;;;;;;0.98;0.98;;;;;;;;;;5024667;28;20490;-91
2023/02/21 02:21:08;;;;;;;2.33;2.22;;;;;;;;;;5035794;28;20052;-90
2023/02/21 02:23:53;;;;;;;4.63;1.42;;;;;;;;;;5036896;28;20045;-91
2023/02/21 02:26:29;;;;;;;1.02;1.00;;;;;;;;;;5048007;28;20442;-92
2023/02/21 02:29:07;;;;;;;1.45;1.42;;;;;;;;;;5025583;28;20042;-93
2023/02/21 02:31:39;;;;;;;1.73;1.70;;;;;;;;;;5015703;28;20054;-91
2023/02/21 02:34:25;;;;;;;2.47;2.38;;;;;;;;;;5022778;28;20053;-93
2023/02/21 02:36:53;;;;;;;1.23;1.23;;;;;;;;;;5035296;28;20064;-93
2023/02/21 02:39:24;;;;;;;2.38;1.30;;;;;;;;;;5035231;28;20418;-93
2023/02/21 02:41:54;;;;;;;1.00;1.00;;;;;;;;;;5035907;28;20042;-93
2023/02/21 02:44:24;;;;;;;2.10;1.85;;;;;;;;;;5035832;28;20443;-93
2023/02/21 02:46:51;;;;;;;0.85;0.85;;;;;;;;;;5035934;28;20050;-92
2023/02/21 02:49:18;;;;;;;0.88;0.88;;;;;;;;;;5036182;28;20113;-92
2023/02/21 02:51:46;;;;;;;0.60;0.60;;;;;;;;;;5035049;28;20503;-91
2023/02/21 02:54:13;;;;;;;1.33;1.30;;;;;;;;;;5037326;28;20060;-93
2023/02/21 02:56:39;;;;;;;1.17;1.17;;;;;;;;;;5034728;28;20099;-91
2023/02/21 02:59:07;;;;;;;1.45;1.40;;;;;;;;;;5035433;28;20050;-91
2023/02/21 03:01:44;;;;;;;0.93;0.93;;;;;;;;;;5035070;28;20049;-91
2023/02/21 03:04:19;;;;;;;0.95;0.95;;;;;;;;;;5025699;28;20057;-92
2023/02/21 03:06:51;;;;;;;1.20;1.20;;;;;;;;;;5015265;28;20046;-91
2023/02/21 03:09:21;;;;;;;1.63;1.58;;;;;;;;;;5026015;28;20046;-92
2023/02/21 03:11:51;;;;;;;1.60;1.20;;;;;;;;;;5033857;28;20101;-91
2023/02/21 03:14:19;;;;;;;1.20;1.20;;;;;;;;;;5023831;28;20117;-91
2023/02/21 03:16:47;;;;;;;0.93;0.93;;;;;;;;;;5014160;28;20438;-91
2023/02/21 03:19:17;;;;;;;0.80;0.80;;;;;;;;;;5014964;28;20125;-90
2023/02/21 03:21:46;;;;;;;0.55;0.55;;;;;;;;;;5015587;28;20493;-91
2023/02/21 03:24:14;;;;;;;0.95;0.95;;;;;;;;;;5015903;28;20144;-91
2023/02/21 03:26:42;;;;;;;1.05;1.02;;;;;;;;;;5024847;28;20180;-91
2023/02/21 03:29:09;;;;;;;1.13;0.77;;;;;;;;;;5035186;28;20055;-93
2023/02/21 03:31:37;;;;;;;0.88;0.88;;;;;;;;;;5033961;28;20502;-92
2023/02/21 03:34:04;;;;;;;1.05;1.02;;;;;;;;;;5034193;28;20107;-92
2023/02/21 03:36:31;;;;;;;2.05;1.95;;;;;;;;;;5034101;28;20503;-92
2023/02/21 03:38:57;;;;;;;1.23;1.17;;;;;;;;;;5033796;28;20053;-93
2023/02/21 03:41:25;;;;;;;1.48;1.40;;;;;;;;;;5034226;28;20056;-92
2023/02/21 03:43:52;;;;;;;0.73;0.73;;;;;;;;;;5034237;28;20490;-92
2023/02/21 03:46:18;;;;;;;1.02;1.02;;;;;;;;;;5036297;28;20128;-92
2023/02/21 03:48:45;;;;;;;1.15;1.15;;;;;;;;;;5032041;28;20049;-93
2023/02/21 03:51:12;;;;;;;1.17;1.17;;;;;;;;;;5015549;28;20081;-92
2023/02/21 03:53:38;;;;;;;1.17;1.08;;;;;;;;;;5025457;28;20054;-92
2023/02/21 03:56:06;;;;;;;1.33;1.13;;;;;;;;;;5016937;28;20072;-93
2023/02/21 03:58:35;;;;;;;0.63;0.63;;;;;;;;;;5018441;28;20057;-93
2023/02/21 04:01:02;;;;;;;0.73;0.73;;;;;;;;;;5026261;28;20048;-92
2023/02/21 04:03:29;;;;;;;0.88;0.88;;;;;;;;;;5016974;28;20136;-93
2023/02/21 04:05:55;;;;;;;1.17;1.17;;;;;;;;;;5016229;28;20057;-93
2023/02/21 04:08:22;;;;;;;0.73;0.73;;;;;;;;;;5014663;28;20061;-94
2023/02/21 04:10:48;;;;;;;1.15;1.15;;;;;;;;;;5014980;28;20514;-93
2023/02/21 04:13:15;;;;;;;1.77;1.75;;;;;;;;;;5014257;28;20739;-93
2023/02/21 04:15:43;;;;;;;1.33;1.33;;;;;;;;;;5014437;28;20487;-92
2023/02/21 04:18:09;;;;;;;0.93;0.90;;;;;;;;;;5017908;28;20053;-94
2023/02/21 04:20:36;;;;;;;1.65;1.55;;;;;;;;;;5034264;28;20415;-93
2023/02/21 04:23:02;;;;;;;2.15;2.05;;;;;;;;;;5033829;28;20050;-94
2023/02/21 04:25:29;;;;;;;0.68;0.68;;;;;;;;;;5033931;28;20060;-93
2023/02/21 04:27:55;;;;;;;1.50;1.40;;;;;;;;;;5033964;28;20103;-94
2023/02/21 04:30:23;;;;;;;1.73;1.65;;;;;;;;;;5033931;28;20049;-93
2023/02/21 04:32:51;;;;;;;2.58;1.98;;;;;;;;;;5034243;28;20046;-93
2023/02/21 04:35:17;;;;;;;1.48;1.45;;;;;;;;;;5034332;28;20498;-91
2023/02/21 04:37:44;;;;;;;1.33;1.27;;;;;;;;;;5036599;28;20526;-91
2023/02/21 04:40:11;;;;;;;0.88;0.88;;;;;;;;;;5021422;28;20078;-92
2023/02/21 04:42:38;;;;;;;0.98;0.98;;;;;;;;;;5014401;28;20046;-94
2023/02/21 04:45:04;;;;;;;1.95;1.85;;;;;;;;;;5015419;28;20407;-94
2023/02/21 04:47:31;;;;;;;1.10;1.10;;;;;;;;;;5020707;28;20058;-94
2023/02/21 04:49:59;;;;;;;0.90;0.90;;;;;;;;;;5018706;28;20053;-94
2023/02/21 04:52:26;;;;;;;0.70;0.70;;;;;;;;;;5018971;28;20046;-94
2023/02/21 04:54:52;;;;;;;1.17;1.17;;;;;;;;;;5029678;28;20057;-94
2023/02/21 04:57:19;;;;;;;0.95;0.95;;;;;;;;;;5044446;28;20053;-94
2023/02/21 04:59:46;;;;;;;2.83;1.33;;;;;;;;;;5041112;28;20053;-94
2023/02/21 05:02:12;;;;;;;0.73;0.73;;;;;;;;;;5037604;28;20104;-94
2023/02/21 05:04:39;;;;;;;1.02;1.02;;;;;;;;;;5031608;28;20058;-94
2023/02/21 05:07:08;;;;;;;1.65;1.55;;;;;;;;;;5017499;28;20104;-93
2023/02/21 05:09:35;;;;;;;0.60;0.60;;;;;;;;;;5029495;28;20054;-93
2023/02/21 05:12:01;;;;;;;2.35;2.25;;;;;;;;;;5036911;28;20041;-92
2023/02/21 05:14:28;;;;;;;1.33;1.23;;;;;;;;;;5050443;28;20052;-92
2023/02/21 05:16:55;;;;;;;4.97;2.13;;;;;;;;;;5036865;28;20499;-92
2023/02/21 05:19:26;;;;;;;1.85;1.75;;;;;;;;;;5037167;28;20064;-91
2023/02/21 05:21:53;;;;;;;2.65;2.50;;;;;;;;;;5037245;28;20494;-91
2023/02/21 05:24:21;;;;;;;1.20;1.20;;;;;;;;;;5038016;28;20045;-92
2023/02/21 05:26:48;;;;;;;0.77;0.77;;;;;;;;;;5038255;28;20045;-91
2023/02/21 05:29:15;;;;;;;1.63;1.52;;;;;;;;;;5045010;28;20053;-92
2023/02/21 05:31:41;;;;;;;0.80;0.80;;;;;;;;;;5047532;28;20069;-90
2023/02/21 05:34:08;;;;;;;2.30;2.20;;;;;;;;;;5048386;28;20053;-91
2023/02/21 05:36:35;;;;;;;1.88;1.77;;;;;;;;;;5047727;28;20111;-91
2023/02/21 05:39:01;;;;;;;8.73;1.83;;;;;;;;;;5048604;28;20057;-91
2023/02/21 05:41:29;;;;;;;3.25;2.15;;;;;;;;;;5043388;28;20072;-91
2023/02/21 05:43:56;;;;;;;1.92;1.83;;;;;;;;;;5035258;28;20053;-89
2023/02/21 05:46:25;;;;;;;1.35;1.25;;;;;;;;;;5018475;28;20057;-89
2023/02/21 05:48:52;;;;;;;1.05;1.05;;;;;;;;;;5037097;28;20057;-90
2023/02/21 05:51:18;;;;;;;0.43;0.43;;;;;;;;;;5018445;28;20058;-91
2023/02/21 05:53:45;;;;;;;1.27;1.25;;;;;;;;;;5017512;28;20054;-90
2023/02/21 05:56:13;;;;;;;1.10;0.95;;;;;;;;;;5015943;28;20045;-91
2023/02/21 05:58:41;;;;;;;1.23;1.13;;;;;;;;;;5028130;28;20076;-90
2023/02/21 06:01:08;;;;;;;1.40;1.38;;;;;;;;;;5032731;28;20107;-89
2023/02/21 06:03:34;;;;;;;1.98;1.88;;;;;;;;;;5031854;28;20103;-90
2023/02/21 06:06:01;;;;;;;0.77;0.77;;;;;;;;;;5018974;28;20060;-89
2023/02/21 06:08:27;;;;;;;0.77;0.77;;;;;;;;;;5014669;28;20042;-90
2023/02/21 06:10:54;;;;;;;1.48;1.38;;;;;;;;;;5027721;28;20049;-90
2023/02/21 06:13:21;;;;;;;2.15;1.38;;;;;;;;;;5034023;28;20111;-90
2023/02/21 06:15:48;;;;;;;3.72;3.53;;;;;;;;;;5021066;28;20057;-88
2023/02/21 06:18:16;;;;;;;2.47;2.28;;;;;;;;;;5014307;28;20056;-89
2023/02/21 06:20:43;;;;;;;1.33;1.27;;;;;;;;;;5028456;28;20049;-89
2023/02/21 06:23:10;;;;;;;2.65;2.25;;;;;;;;;;5032766;28;20568;-89
2023/02/21 06:25:36;;;;;;;4.93;4.32;;;;;;;;;;5029614;28;20054;-89
2023/02/21 06:28:03;;;;;;;1.13;1.13;;;;;;;;;;5035250;28;20041;-89
2023/02/21 06:30:30;;;;;;;1.25;1.23;;;;;;;;;;5043660;28;20191;-89
2023/02/21 06:32:58;;;;;;;2.13;2.00;;;;;;;;;;5041971;28;20046;-89
2023/02/21 06:35:24;;;;;;;1.08;1.05;;;;;;;;;;5031121;28;20104;-88
2023/02/21 06:37:51;;;;;;;5.68;2.75;;;;;;;;;;5048707;28;20103;-89
2023/02/21 06:40:17;;;;;;;2.13;1.80;;;;;;;;;;5032217;28;20053;-89
2023/02/21 06:42:44;;;;;;;3.83;3.53;;;;;;;;;;5035355;28;20056;-89
2023/02/21 06:45:11;;;;;;;1.13;1.10;;;;;;;;;;5037263;28;20092;-89
2023/02/21 06:47:37;;;;;;;1.58;1.48;;;;;;;;;;5049518;28;20095;-87
2023/02/21 06:50:06;;;;;;;2.97;2.70;;;;;;;;;;5041645;28;20053;-87
2023/02/21 06:52:32;;;;;;;2.70;1.90;;;;;;;;;;5030932;28;20503;-87
2023/02/21 06:54:59;;;;;;;2.47;2.22;;;;;;;;;;5031962;28;20057;-87
2023/02/21 06:57:25;;;;;;;5.32;3.53;;;;;;;;;;5030620;28;20049;-88
2023/02/21 06:59:51;;;;;;;4.43;3.08;;;;;;;;;;5035213;28;20049;-87
2023/02/21 07:02:19;;;;;;;1.50;1.40;;;;;;;;;;5036655;28;20049;-87
2023/02/21 07:04:45;;;;;;;2.45;2.33;;;;;;;;;;5051680;28;20048;-87
2023/02/21 07:07:15;;;;;;;2.47;2.35;;;;;;;;;;5036287;28;20076;-87
2023/02/21 07:09:41;;;;;;;2.40;2.28;;;;;;;;;;5053214;28;20045;-89
2023/02/21 07:12:08;;;;;;;3.95;3.05;;;;;;;;;;5014053;28;20057;-89
2023/02/21 07:14:35;;;;;;;1.50;1.40;;;;;;;;;;5025995;28;20554;-89
2023/02/21 07:17:01;;;;;;;9.13;3.72;;;;;;;;;;5033050;28;20053;-90
2023/02/21 07:19:30;;;;;;;2.38;2.28;;;;;;;;;;5033231;28;20100;-90
2023/02/21 07:21:56;;;;;;;4.55;4.07;;;;;;;;;;5035115;28;20997;-89
2023/02/21 07:24:24;;;;;;;2.65;2.53;;;;;;;;;;5041555;28;20114;-89
2023/02/21 07:26:50;;;;;;;2.90;2.65;;;;;;;;;;5016022;28;20064;-90
2023/02/21 07:29:17;;;;;;;2.80;2.63;;;;;;;;;;5030937;28;20041;-90
2023/02/21 07:31:44;;;;;;;2.72;2.53;;;;;;;;;;5035319;28;20566;-89
2023/02/21 07:34:11;;;;;;;3.60;3.35;;;;;;;;;;5035994;28;20102;-89
2023/02/21 07:36:38;;;;;;;2.65;2.47;;;;;;;;;;5036208;28;20533;-90
2023/02/21 07:39:04;;;;;;;3.90;3.70;;;;;;;;;;5043335;28;20053;-90
2023/02/21 07:41:32;;;;;;;3.20;3.00;;;;;;;;;;5023195;28;20057;-88
2023/02/21 07:43:58;;;;;;;1.25;1.17;;;;;;;;;;5032578;28;20048;-89
2023/02/21 07:46:26;;;;;;;4.43;3.88;;;;;;;;;;5030472;28;20433;-90
2023/02/21 07:48:53;;;;;;;2.22;2.08;;;;;;;;;;5043556;28;20058;-90
2023/02/21 07:51:19;;;;;;;3.28;3.08;;;;;;;;;;5020383;28;20054;-89
2023/02/21 07:53:46;;;;;;;4.25;4.05;;;;;;;;;;5045421;28;20506;-89
2023/02/21 07:56:12;;;;;;;3.13;2.92;;;;;;;;;;5045246;28;20056;-90
2023/02/21 07:58:40;;;;;;;3.78;3.55;;;;;;;;;;5045230;28;20552;-89
2023/02/21 08:01:07;;;;;;;3.38;3.20;;;;;;;;;;5023097;28;20096;-90
2023/02/21 08:03:33;;;;;;;4.13;3.80;;;;;;;;;;5041584;28;20053;-90
2023/02/21 08:06:00;;;;;;;4.45;4.25;;;;;;;;;;5034792;28;20053;-89
2023/02/21 08:08:26;;;;;;;3.30;3.10;;;;;;;;;;5037650;28;20107;-89
2023/02/21 08:10:53;;;;;;;2.03;1.92;;;;;;;;;;5045684;28;20731;-88
2023/02/21 08:13:19;;;;;;;5.70;5.30;;;;;;;;;;5044881;28;20045;-88
2023/02/21 08:15:47;;;;;;;5.15;4.68;;;;;;;;;;5035480;28;20061;-87
2023/02/21 08:18:19;;;;;;;3.92;3.70;;;;;;;;;;5020299;28;20044;-89
2023/02/21 08:20:46;;;;;;;5.15;4.85;;;;;;;;;;5041637;28;20423;-88
2023/02/21 08:23:13;;;;;;;4.70;4.45;;;;;;;;;;5035515;28;20053;-88
2023/02/21 08:25:39;;;;;;;4.05;3.78;;;;;;;;;;5032884;28;20073;-88
2023/02/21 08:28:06;;;;;;;3.35;3.15;;;;;;;;;;5048389;28;20049;-88
2023/02/21 08:30:32;;;;;;;2.95;2.83;;;;;;;;;;5030487;28;20053;-87
2023/02/21 08:33:00;;;;;;;3.90;3.22;;;;;;;;;;5036566;28;20049;-88
2023/02/21 08:35:27;;;;;;;3.75;3.45;;;;;;;;;;5041430;28;20119;-89
2023/02/21 08:37:55;;;;;;;4.70;4.40;;;;;;;;;;5029826;28;20046;-88
2023/02/21 08:40:22;;;;;;;5.05;4.68;;;;;;;;;;5037449;28;20046;-88
2023/02/21 08:42:49;;;;;;;3.33;3.08;;;;;;;;;;5015702;28;20057;-88
2023/02/21 08:45:16;;;;;;;3.53;3.28;;;;;;;;;;5015669;28;20057;-88
2023/02/21 08:47:43;;;;;;;2.80;2.67;;;;;;;;;;5029620;28;20049;-88
2023/02/21 08:50:11;;;;;;;2.58;2.47;;;;;;;;;;5035523;28;20045;-88
2023/02/21 08:52:38;;;;;;;4.00;3.70;;;;;;;;;;5016473;28;20566;-87
2023/02/21 08:55:05;;;;;;;3.40;3.20;;;;;;;;;;5046119;28;20084;-88
2023/02/21 08:57:33;;;;;;;2.92;2.78;;;;;;;;;;5038893;28;20053;-89
2023/02/21 09:00:00;;;;;;;3.80;3.63;;;;;;;;;;5055294;28;20499;-88
2023/02/21 09:02:27;;;;;;;3.42;3.17;;;;;;;;;;5045279;28;20049;-88
2023/02/21 09:04:53;;;;;;;3.85;3.65;;;;;;;;;;5049231;28;20053;-88
2023/02/21 09:07:22;;;;;;;3.28;3.08;;;;;;;;;;5023476;28;20050;-88
2023/02/21 09:09:48;;;;;;;3.60;3.30;;;;;;;;;;5055317;28;20053;-88
2023/02/21 09:12:15;;;;;;;3.95;3.55;;;;;;;;;;5055201;28;20049;-88
2023/02/21 09:14:43;;;;;;;2.42;2.33;;;;;;;;;;5043054;28;20099;-88
2023/02/21 09:17:10;;;;;;;5.05;4.82;;;;;;;;;;5036597;28;20099;-88
2023/02/21 09:19:37;;;;;;;2.55;2.45;;;;;;;;;;5051370;28;20049;-88
2023/02/21 09:22:04;;;;;;;3.63;3.13;;;;;;;;;;5035929;28;20045;-88
2023/02/21 09:24:32;;;;;;;5.15;4.82;;;;;;;;;;5054133;28;20520;-88
2023/02/21 09:27:01;;;;;;;4.25;4.05;;;;;;;;;;5031015;28;20058;-88
2023/02/21 09:29:28;;;;;;;4.75;3.75;;;;;;;;;;5017578;28;20060;-89
2023/02/21 09:31:55;;;;;;;5.03;4.55;;;;;;;;;;5034405;28;20458;-89
2023/02/21 09:34:22;;;;;;;4.63;4.32;;;;;;;;;;5034778;28;20103;-89
2023/02/21 09:36:49;;;;;;;4.43;4.13;;;;;;;;;;5034529;28;20465;-88
2023/02/21 09:39:16;;;;;;;7.20;6.70;;;;;;;;;;5033748;28;20538;-88
2023/02/21 09:41:45;;;;;;;7.97;6.38;;;;;;;;;;5033460;28;20050;-89
2023/02/21 09:44:13;;;;;;;4.40;3.97;;;;;;;;;;5034688;28;20108;-88
2023/02/21 09:46:41;;;;;;;3.83;3.53;;;;;;;;;;5028243;28;20093;-89
2023/02/21 09:49:12;;;;;;;5.53;5.18;;;;;;;;;;5013833;28;20050;-85
2023/02/21 09:51:41;;;;;;;4.72;4.53;;;;;;;;;;5021895;28;20060;-86
2023/02/21 09:54:12;;;;;;;6.75;6.25;;;;;;;;;;5034039;28;20053;-88
2023/02/21 09:56:39;;;;;;;4.40;4.05;;;;;;;;;;5033047;28;20053;-89
2023/02/21 09:59:09;;;;;;;7.45;5.35;;;;;;;;;;5050676;28;20052;-89
2023/02/21 10:01:43;;;;;;;7.28;6.68;;;;;;;;;;5028930;28;20048;-89
2023/02/21 10:04:13;;;;;;;5.35;5.13;;;;;;;;;;5045789;28;20098;-89
2023/02/21 10:06:44;;;;;;;9.27;5.35;;;;;;;;;;5033099;28;20053;-89
2023/02/21 10:09:19;;;;;;;6.30;5.80;;;;;;;;;;5020003;28;20111;-88
2023/02/21 10:11:49;;;;;;;8.65;6.05;;;;;;;;;;5047866;28;20053;-88
2023/02/21 10:14:23;;;;;;;9.20;8.02;;;;;;;;;;5044569;28;20045;-89
2023/02/21 10:16:53;;;;;;;6.60;5.38;;;;;;;;;;5025010;28;20558;-89
2023/02/21 10:19:24;;;;;;;5.35;4.82;;;;;;;;;;5049200;28;20045;-89
2023/02/21 10:21:53;;;;;;;6.03;5.57;;;;;;;;;;5049743;28;20144;-89
2023/02/21 10:24:21;;;;;;;6.05;5.55;;;;;;;;;;5044003;28;20096;-89
2023/02/21 10:26:52;;;;;;;6.05;5.45;;;;;;;;;;5040108;28;20045;-88
2023/02/21 10:29:23;;;;;;;5.82;5.25;;;;;;;;;;5035142;28;20119;-88
2023/02/21 10:31:52;;;;;;;6.10;5.70;;;;;;;;;;5051090;28;20118;-89
2023/02/21 10:34:22;;;;;;;5.63;5.07;;;;;;;;;;5043427;28;20049;-90
2023/02/21 10:36:49;;;;;;;8.77;8.27;;;;;;;;;;5026382;28;20048;-88
2023/02/21 10:39:17;;;;;;;5.05;4.72;;;;;;;;;;5028039;28;20058;-89
2023/02/21 10:41:44;;;;;;;8.98;8.32;;;;;;;;;;5037813;28;20057;-89
2023/02/21 10:44:12;;;;;;;7.57;6.82;;;;;;;;;;5044572;28;20041;-88
2023/02/21 10:46:44;;;;;;;5.30;4.85;;;;;;;;;;5036553;28;20474;-89
2023/02/21 10:49:20;;;;;;;7.00;6.60;;;;;;;;;;5013582;28;20057;-89
2023/02/21 10:51:46;;;;;;;7.82;6.03;;;;;;;;;;5013255;28;20049;-89
2023/02/21 10:54:20;;;;;;;6.38;5.88;;;;;;;;;;5012327;28;20073;-89
2023/02/21 10:56:47;;;;;;;6.43;6.00;;;;;;;;;;5013228;28;20105;-90
2023/02/21 10:59:20;;;;;;;7.40;6.80;;;;;;;;;;5013706;28;20107;-88
2023/02/21 11:01:49;;;;;;;8.38;7.75;;;;;;;;;;5016619;28;20054;-89
2023/02/21 11:04:27;;;;;;;8.95;8.25;;;;;;;;;;5049977;28;20055;-89
2023/02/21 11:06:56;;;;;;;8.98;8.02;;;;;;;;;;5034154;28;20054;-91
2023/02/21 11:09:40;;;;;;;8.80;8.00;;;;;;;;;;5045597;28;20088;-90
2023/02/21 11:12:17;;;;;;;6.50;5.97;;;;;;;;;;5032803;28;20399;-89
2023/02/21 11:14:44;;;;;;;6.97;6.35;;;;;;;;;;5049078;28;20129;-89
2023/02/21 11:17:17;;;;;;;7.20;5.28;;;;;;;;;;5048996;28;20118;-89
2023/02/21 11:19:45;;;;;;;9.10;8.48;;;;;;;;;;5053040;28;20045;-89
2023/02/21 11:22:12;;;;;;;8.27;7.85;;;;;;;;;;5033113;28;20046;-89
2023/02/21 11:24:46;;;;;;;7.95;7.32;;;;;;;;;;5046614;28;20049;-90
2023/02/21 11:27:13;;;;;;;7.30;6.80;;;;;;;;;;5036758;28;20119;-90
2023/02/21 11:29:42;;;;;;;8.20;7.78;;;;;;;;;;5042993;28;20041;-90
2023/02/21 11:32:11;;;;;;;5.75;5.43;;;;;;;;;;5032401;28;20103;-89
2023/02/21 11:34:47;;;;;;;6.70;6.10;;;;;;;;;;5033541;28;20057;-88
2023/02/21 11:37:14;;;;;;;7.78;7.35;;;;;;;;;;5039280;28;20092;-90
2023/02/21 11:39:41;;;;;;;7.47;6.97;;;;;;;;;;5032500;28;20053;-90
2023/02/21 11:42:25;;;;;;;8.02;7.53;;;;;;;;;;5035446;28;20120;-90
2023/02/21 11:45:02;;;;;;;12.07;11.45;;;;;;;;;;5012478;28;20050;-90
2023/02/21 11:47:35;;;;;;;10.25;9.55;;;;;;;;;;5027838;28;20048;-87
2023/02/21 11:50:05;;;;;;;10.45;9.95;;;;;;;;;;5036236;28;20058;-89
2023/02/21 11:52:31;;;;;;;;;;;;;;;;;;5032089;28;20057;-88
2023/02/21 11:54:58;;;;;;;9.13;8.57;;;;;;;;;;5019211;28;19955;-86
2023/02/21 11:57:28;;;;;;;7.40;6.93;;;;;;;;;;5043595;28;20498;-87
2023/02/21 11:59:59;;;;;;;10.27;9.65;;;;;;;;;;5037335;28;20045;-87
2023/02/21 12:02:47;;;;;;;6.20;5.80;;;;;;;;;;5025243;28;20054;-87
2023/02/21 12:05:21;;;;;;;9.05;8.63;;;;;;;;;;5026333;28;20048;-87
2023/02/21 12:07:51;;;;;;;9.32;8.73;;;;;;;;;;5040093;28;20459;-86
2023/02/21 12:10:28;;;;;;;10.35;9.75;;;;;;;;;;5037136;28;20612;-88
2023/02/21 12:12:59;;;;;;;7.03;6.63;;;;;;;;;;5041448;28;20049;-86
2023/02/21 12:15:26;;;;;;;8.68;8.00;;;;;;;;;;5049873;28;20060;-87
2023/02/21 12:18:11;;;;;;;8.05;7.65;;;;;;;;;;5025868;28;20193;-88
2023/02/21 12:20:49;;;;;;;9.73;9.13;;;;;;;;;;5025073;28;20041;-86
2023/02/21 12:23:18;;;;;;;9.00;8.50;;;;;;;;;;5042676;28;20049;-86
2023/02/21 12:25:57;;;;;;;9.18;7.00;;;;;;;;;;5055085;28;20186;-87
2023/02/21 12:28:30;;;;;;;8.75;8.32;;;;;;;;;;5026812;28;20112;-87
2023/02/21 12:31:08;;;;;;;7.75;7.25;;;;;;;;;;5023248;28;20490;-86
2023/02/21 12:33:41;;;;;;;7.53;7.13;;;;;;;;;;5038079;28;20498;-88
2023/02/21 12:36:28;;;;;;;5.90;5.32;;;;;;;;;;5049137;28;20399;-87
2023/02/21 12:39:03;;;;;;;7.90;7.40;;;;;;;;;;5039274;28;20158;-87
2023/02/21 12:41:45;;;;;;;7.13;6.80;;;;;;;;;;5047187;28;20114;-87
2023/02/21 12:44:13;;;;;;;7.20;6.82;;;;;;;;;;5042264;28;20533;-86
2023/02/21 12:46:41;;;;;;;10.25;9.57;;;;;;;;;;5038826;28;20136;-87
2023/02/21 12:49:12;;;;;;;6.60;6.28;;;;;;;;;;5037056;28;20054;-87
2023/02/21 12:51:41;;;;;;;6.63;6.30;;;;;;;;;;5044875;28;20524;-87
2023/02/21 12:54:10;;;;;;;9.35;8.95;;;;;;;;;;5050816;28;20066;-87
2023/02/21 12:56:40;;;;;;;8.70;8.35;;;;;;;;;;5037652;28;20054;-87
2023/02/21 12:59:11;;;;;;;7.70;7.35;;;;;;;;;;5027957;28;20112;-88
2023/02/21 13:01:40;;;;;;;8.90;8.45;;;;;;;;;;5046572;28;20061;-87
2023/02/21 13:04:12;;;;;;;7.32;7.00;;;;;;;;;;5035764;28;20542;-87
2023/02/21 13:06:42;;;;;;;6.00;5.65;;;;;;;;;;5035141;28;20552;-88
2023/02/21 13:09:15;;;;;;;7.35;6.97;;;;;;;;;;5042329;28;20106;-88
2023/02/21 13:11:43;;;;;;;9.30;8.88;;;;;;;;;;5054546;28;20049;-88
2023/02/21 13:14:11;;;;;;;8.02;7.70;;;;;;;;;;5031209;28;20112;-88
2023/02/21 13:16:38;;;;;;;8.95;8.63;;;;;;;;;;5059013;28;20052;-88
2023/02/21 13:19:08;;;;;;;11.52;10.93;;;;;;;;;;5051411;28;20498;-88
2023/02/21 13:21:44;;;;;;;8.93;8.52;;;;;;;;;;5046569;28;20053;-88
2023/02/21 13:24:30;;;;;;;8.15;7.75;;;;;;;;;;5048908;28;20048;-87
2023/02/21 13:27:04;;;;;;;9.90;9.45;;;;;;;;;;5016098;28;20065;-88
2023/02/21 13:29:32;;;;;;;9.27;8.88;;;;;;;;;;5015512;28;20109;-89
2023/02/21 13:32:00;;;;;;;5.90;5.60;;;;;;;;;;5015875;28;20054;-88
2023/02/21 13:34:28;;;;;;;6.50;6.20;;;;;;;;;;5046899;28;20049;-88
2023/02/21 13:37:00;;;;;;;7.60;7.20;;;;;;;;;;5038432;28;20044;-87
2023/02/21 13:39:30;;;;;;;7.88;7.45;;;;;;;;;;5018673;28;20057;-87
2023/02/21 13:41:57;;;;;;;;;;;;;;;;;;5039050;28;20052;-88
2023/02/21 13:44:25;;;;;;;6.60;6.03;;;;;;;;;;5050473;28;19925;-87
2023/02/21 13:47:12;;;;;;;5.65;5.35;;;;;;;;;;5035028;28;20049;-87
2023/02/21 13:49:49;;;;;;;7.40;7.07;;;;;;;;;;5029875;28;20076;-87
2023/02/21 13:52:28;;;;;;;9.55;9.07;;;;;;;;;;5034627;28;20053;-87
2023/02/21 13:55:12;;;;;;;8.10;7.53;;;;;;;;;;5021152;28;20081;-87
2023/02/21 13:57:41;;;;;;;9.85;9.35;;;;;;;;;;5029214;28;20045;-87
2023/02/21 14:00:23;;;;;;;6.57;6.18;;;;;;;;;;5014580;28;20450;-87
2023/02/21 14:02:54;;;;;;;9.23;8.73;;;;;;;;;;5050247;28;20144;-87
2023/02/21 14:05:21;;;;;;;10.38;9.98;;;;;;;;;;5046933;28;20095;-87
2023/02/21 14:07:56;;;;;;;9.50;9.00;;;;;;;;;;5044441;28;20056;-87
2023/02/21 14:10:25;;;;;;;7.20;6.90;;;;;;;;;;5053918;28;20140;-87
2023/02/21 14:12:57;;;;;;;12.23;11.73;;;;;;;;;;5053236;28;20041;-87
2023/02/21 14:15:23;;;;;;;9.85;9.45;;;;;;;;;;5054134;28;20053;-87
2023/02/21 14:17:51;;;;;;;7.93;7.55;;;;;;;;;;5044520;28;20057;-87
2023/02/21 14:20:20;;;;;;;7.03;6.70;;;;;;;;;;5043533;28;20095;-88
2023/02/21 14:22:49;;;;;;;5.50;5.15;;;;;;;;;;5045007;28;20127;-88
2023/02/21 14:25:17;;;;;;;8.00;7.53;;;;;;;;;;5026046;28;20045;-88
2023/02/21 14:27:44;;;;;;;7.78;7.40;;;;;;;;;;5049501;28;20053;-88
2023/02/21 14:30:31;;;;;;;6.32;6.03;;;;;;;;;;5040760;28;20048;-89
2023/02/21 14:33:07;;;;;;;6.80;6.45;;;;;;;;;;5014641;28;20077;-87
2023/02/21 14:35:35;;;;;;;6.40;6.07;;;;;;;;;;5041930;28;20102;-88
2023/02/21 14:38:02;;;;;;;8.48;8.07;;;;;;;;;;5047072;28;20093;-88
2023/02/21 14:40:31;;;;;;;6.85;6.53;;;;;;;;;;5045603;28;20057;-88
2023/02/21 14:43:06;;;;;;;10.15;9.73;;;;;;;;;;5016186;28;20443;-86
2023/02/21 14:45:40;;;;;;;7.90;7.55;;;;;;;;;;5022626;28;20103;-85
2023/02/21 14:48:27;;;;;;;9.07;8.65;;;;;;;;;;5021430;28;20058;-86
2023/02/21 14:51:06;;;;;;;7.65;7.15;;;;;;;;;;5013785;28;20050;-86
2023/02/21 14:53:58;;;;;;;6.68;6.38;;;;;;;;;;5030300;28;20053;-86
2023/02/21 14:56:35;;;;;;;7.97;7.57;;;;;;;;;;5037384;28;20119;-87
2023/02/21 14:59:18;;;;;;;7.13;6.65;;;;;;;;;;5023083;28;20112;-86
2023/02/21 15:01:55;;;;;;;6.75;6.25;;;;;;;;;;5020866;28;20131;-87
2023/02/21 15:04:31;;;;;;;8.70;8.05;;;;;;;;;;5040079;28;20050;-86
2023/02/21 15:07:00;;;;;;;6.82;6.35;;;;;;;;;;5021031;28;20136;-86
2023/02/21 15:09:27;;;;;;;8.77;8.38;;;;;;;;;;5026230;28;20058;-86
2023/02/21 15:11:55;;;;;;;7.57;7.18;;;;;;;;;;5033586;28;20057;-86
2023/02/21 15:14:23;;;;;;;8.13;7.18;;;;;;;;;;5036099;28;20054;-86
2023/02/21 15:16:51;;;;;;;10.18;9.60;;;;;;;;;;5052042;28;20053;-86
2023/02/21 15:19:21;;;;;;;7.10;6.78;;;;;;;;;;5053326;28;20110;-86
2023/02/21 15:21:49;;;;;;;7.13;6.72;;;;;;;;;;5053058;28;20056;-86
2023/02/21 15:24:16;;;;;;;8.38;7.97;;;;;;;;;;5052538;28;20053;-86
2023/02/21 15:26:43;;;;;;;7.32;6.93;;;;;;;;;;5053032;28;20422;-88
2023/02/21 15:29:11;;;;;;;7.28;6.78;;;;;;;;;;5053460;28;20045;-87
2023/02/21 15:31:39;;;;;;;7.50;7.00;;;;;;;;;;5052544;28;20096;-87
2023/02/21 15:34:06;;;;;;;10.02;9.38;;;;;;;;;;5052454;28;20498;-87
2023/02/21 15:36:32;;;;;;;10.05;9.52;;;;;;;;;;5052652;28;20053;-88
2023/02/21 15:39:06;;;;;;;9.38;8.88;;;;;;;;;;5042259;28;20103;-87
2023/02/21 15:41:36;;;;;;;7.90;7.47;;;;;;;;;;5032569;28;20131;-87
2023/02/21 15:44:05;;;;;;;9.55;8.93;;;;;;;;;;5032638;28;20056;-87
2023/02/21 15:46:34;;;;;;;7.63;7.00;;;;;;;;;;5042436;28;20048;-87
2023/02/21 15:49:03;;;;;;;7.78;7.22;;;;;;;;;;5012901;28;20077;-87
2023/02/21 15:51:30;;;;;;;9.73;8.88;;;;;;;;;;5012544;28;20046;-88
2023/02/21 15:54:09;;;;;;;9.80;8.77;;;;;;;;;;5032005;28;20071;-88
2023/02/21 15:56:35;;;;;;;8.55;7.82;;;;;;;;;;5052209;28;20063;-86
2023/02/21 15:59:02;;;;;;;9.88;9.07;;;;;;;;;;5029611;28;20042;-87
2023/02/21 16:01:29;;;;;;;9.90;9.25;;;;;;;;;;5031862;28;20049;-87
2023/02/21 16:04:13;;;;;;;7.53;6.35;;;;;;;;;;5026358;28;20458;-86
2023/02/21 16:06:45;;;;;;;8.38;7.72;;;;;;;;;;5036423;28;20045;-87
2023/02/21 16:09:23;;;;;;;8.05;7.43;;;;;;;;;;5035441;28;20050;-87
2023/02/21 16:11:51;;;;;;;6.57;6.15;;;;;;;;;;5051482;28;20052;-87
2023/02/21 16:14:20;;;;;;;6.43;4.97;;;;;;;;;;5051874;28;20083;-87
2023/02/21 16:16:52;;;;;;;6.07;5.75;;;;;;;;;;5038144;28;20739;-87
2023/02/21 16:19:19;;;;;;;5.78;5.38;;;;;;;;;;5041385;28;20096;-88
2023/02/21 16:21:47;;;;;;;5.13;4.72;;;;;;;;;;5032326;28;20055;-87
2023/02/21 16:24:29;;;;;;;5.38;5.07;;;;;;;;;;5031564;28;20045;-87
2023/02/21 16:27:02;;;;;;;5.03;4.63;;;;;;;;;;5032791;28;20045;-87
2023/02/21 16:29:29;;;;;;;6.70;6.15;;;;;;;;;;5025174;28;20095;-88
2023/02/21 16:31:55;;;;;;;6.78;6.25;;;;;;;;;;5051938;28;20457;-88
2023/02/21 16:34:23;;;;;;;8.20;6.68;;;;;;;;;;5026130;28;20049;-88
2023/02/21 16:36:53;;;;;;;4.85;4.18;;;;;;;;;;5012253;28;20099;-88
2023/02/21 16:39:20;;;;;;;3.72;3.42;;;;;;;;;;5047412;28;20095;-88
2023/02/21 16:41:47;;;;;;;4.70;3.92;;;;;;;;;;5037546;28;20498;-88
2023/02/21 16:44:14;;;;;;;6.05;5.72;;;;;;;;;;5041360;28;20675;-88
2023/02/21 16:46:40;;;;;;;3.55;3.35;;;;;;;;;;5044576;28;20111;-87
2023/02/21 16:49:09;;;;;;;7.95;7.22;;;;;;;;;;5030779;28;20049;-88
2023/02/21 16:51:39;;;;;;;4.55;4.32;;;;;;;;;;5048706;28;20568;-88
2023/02/21 16:54:08;;;;;;;3.83;3.63;;;;;;;;;;5039808;28;20153;-88
2023/02/21 16:56:38;;;;;;;4.10;3.80;;;;;;;;;;5035995;28;20045;-87
2023/02/21 16:59:08;;;;;;;10.18;6.25;;;;;;;;;;5047731;28;20506;-88
2023/02/21 17:01:35;;;;;;;7.55;7.07;;;;;;;;;;5039610;28;20049;-86
2023/02/21 17:04:03;;;;;;;4.50;4.20;;;;;;;;;;5048344;28;20050;-86
2023/02/21 17:06:30;;;;;;;7.60;7.10;;;;;;;;;;5020969;28;20132;-87
2023/02/21 17:08:57;;;;;;;4.22;4.03;;;;;;;;;;5030760;28;20499;-86
2023/02/21 17:11:24;;;;;;;10.20;9.50;;;;;;;;;;5051200;28;20085;-87